createdAt,value
2018-09-15T00:02:13.291Z,6.50
2018-09-15T00:04:42.571Z,7.30
2018-09-15T00:07:12.107Z,5.70
2018-09-15T00:09:41.579Z,7.37
2018-09-15T00:12:11.563Z,7.97
2018-09-15T00:14:41.238Z,7.20
2018-09-15T00:17:11.859Z,5.87
2018-09-15T00:19:41.760Z,5.33
2018-09-15T00:22:11.179Z,5.73
2018-09-15T00:24:40.840Z,6.37
2018-09-15T00:27:10.411Z,6.30
2018-09-15T00:29:39.877Z,5.47
2018-09-15T00:32:09.921Z,9.33
2018-09-15T00:34:39.696Z,5.47
2018-09-15T00:37:09.417Z,7.90
2018-09-15T00:39:39.224Z,8.33
2018-09-15T00:42:08.633Z,9.37
2018-09-15T00:44:56.341Z,7.93
2018-09-15T00:47:36.918Z,5.63
2018-09-15T00:50:06.551Z,5.90
2018-09-15T00:52:37.771Z,5.77
2018-09-15T00:55:07.020Z,5.63
2018-09-15T00:57:48.878Z,8.17
2018-09-15T01:00:34.765Z,6.20
2018-09-15T01:03:06.847Z,7.67
2018-09-15T01:05:37.437Z,6.73
2018-09-15T01:08:09.380Z,6.53
2018-09-15T01:10:42.223Z,6.00
2018-09-15T01:13:21.383Z,5.57
2018-09-15T01:15:52.679Z,6.87
2018-09-15T01:18:28.112Z,5.23
2018-09-15T01:21:00.726Z,5.67
2018-09-15T01:23:31.214Z,7.93
2018-09-15T01:26:04.932Z,5.43
2018-09-15T01:28:36.019Z,6.83
2018-09-15T01:31:07.857Z,6.43
2018-09-15T01:33:43.263Z,6.90
2018-09-15T01:36:14.646Z,5.90
2018-09-15T01:38:51.530Z,6.00
2018-09-15T01:41:21.746Z,6.40
2018-09-15T01:43:52.066Z,10.47
2018-09-15T01:46:22.928Z,5.17
2018-09-15T01:49:00.284Z,4.47
2018-09-15T01:51:30.648Z,6.43
2018-09-15T01:54:00.907Z,6.33
2018-09-15T01:56:43.110Z,4.03
2018-09-15T01:59:19.334Z,5.13
2018-09-15T02:01:52.807Z,5.17
2018-09-15T02:04:22.495Z,5.27
2018-09-15T02:06:51.977Z,4.97
2018-09-15T02:09:21.236Z,5.60
2018-09-15T02:11:50.571Z,3.97
2018-09-15T02:14:20.115Z,4.70
2018-09-15T02:16:49.620Z,4.37
2018-09-15T02:19:19.089Z,8.70
2018-09-15T02:21:48.626Z,4.03
2018-09-15T02:24:18.918Z,5.87
2018-09-15T02:26:48.780Z,5.67
2018-09-15T02:29:18.178Z,6.07
2018-09-15T02:31:48.091Z,4.67
2018-09-15T02:34:17.551Z,4.47
2018-09-15T02:36:47.115Z,5.37
2018-09-15T02:39:16.607Z,5.17
2018-09-15T02:41:46.104Z,4.73
2018-09-15T02:44:15.567Z,3.23
2018-09-15T02:46:45.279Z,6.93
2018-09-15T02:49:14.589Z,3.93
2018-09-15T02:51:44.121Z,5.50
2018-09-15T02:54:13.802Z,7.53
2018-09-15T02:56:43.254Z,3.37
2018-09-15T02:59:12.506Z,4.47
2018-09-15T03:01:42.095Z,3.20
2018-09-15T03:04:11.610Z,3.67
2018-09-15T03:06:41.563Z,3.77
2018-09-15T03:09:12.510Z,3.63
2018-09-15T03:11:42.321Z,4.97
2018-09-15T03:14:11.563Z,5.57
2018-09-15T03:16:40.986Z,4.03
2018-09-15T03:19:10.279Z,5.80
2018-09-15T03:21:39.817Z,8.00
2018-09-15T03:24:09.298Z,4.23
2018-09-15T03:26:39.282Z,5.00
2018-09-15T03:29:08.730Z,4.73
2018-09-15T03:31:38.308Z,4.93
2018-09-15T03:34:08.727Z,5.43
2018-09-15T03:36:38.887Z,4.17
2018-09-15T03:39:10.516Z,4.53
2018-09-15T03:41:39.864Z,3.63
2018-09-15T03:44:09.742Z,5.27
2018-09-15T03:46:39.164Z,7.43
2018-09-15T03:49:08.702Z,3.90
2018-09-15T03:51:38.150Z,5.67
2018-09-15T03:54:07.822Z,4.77
2018-09-15T03:56:37.716Z,5.20
2018-09-15T03:59:07.495Z,6.03
2018-09-15T04:01:37.015Z,5.47
2018-09-15T04:04:07.342Z,3.87
2018-09-15T04:06:37.376Z,4.50
2018-09-15T04:09:09.841Z,3.93
2018-09-15T04:11:39.689Z,6.07
2018-09-15T04:14:09.790Z,6.33
2018-09-15T04:16:39.421Z,4.50
2018-09-15T04:19:08.905Z,4.47
2018-09-15T04:21:38.431Z,5.07
2018-09-15T04:24:08.115Z,5.03
2018-09-15T04:26:37.818Z,5.77
2018-09-15T04:29:07.261Z,5.93
2018-09-15T04:31:37.458Z,4.67
2018-09-15T04:34:07.140Z,3.30
2018-09-15T04:36:37.250Z,6.07
2018-09-15T04:39:09.836Z,3.70
2018-09-15T04:41:39.595Z,7.90
2018-09-15T04:44:09.499Z,5.23
2018-09-15T04:46:39.575Z,3.80
2018-09-15T04:49:09.300Z,4.20
2018-09-15T04:51:39.029Z,4.33
2018-09-15T04:54:08.791Z,5.47
2018-09-15T04:56:38.362Z,2.53
2018-09-15T04:59:07.929Z,4.60
2018-09-15T05:01:37.392Z,5.47
2018-09-15T05:04:07.135Z,4.83
2018-09-15T05:06:37.439Z,3.60
2018-09-15T05:09:10.463Z,4.07
2018-09-15T05:11:40.612Z,4.47
2018-09-15T05:14:10.494Z,2.60
2018-09-15T05:16:39.963Z,4.57
2018-09-15T05:19:09.477Z,6.33
2018-09-15T05:21:38.974Z,4.47
2018-09-15T05:24:08.501Z,4.10
2018-09-15T05:26:37.981Z,3.40
2018-09-15T05:29:07.874Z,3.77
2018-09-15T05:31:37.400Z,4.47
2018-09-15T05:34:07.390Z,5.17
2018-09-15T05:36:37.039Z,7.00
2018-09-15T05:39:11.512Z,3.03
2018-09-15T05:41:41.171Z,3.57
2018-09-15T05:44:11.035Z,4.47
2018-09-15T05:46:41.196Z,4.13
2018-09-15T05:49:10.730Z,4.73
2018-09-15T05:51:40.552Z,6.37
2018-09-15T05:54:09.948Z,2.90
2018-09-15T05:56:39.439Z,3.20
2018-09-15T05:59:08.957Z,4.77
2018-09-15T06:01:38.672Z,7.40
2018-09-15T06:04:08.751Z,6.37
2018-09-15T06:06:38.517Z,3.67
2018-09-15T06:09:10.578Z,6.53
2018-09-15T06:11:40.893Z,4.63
2018-09-15T06:14:10.294Z,6.37
2018-09-15T06:16:39.743Z,6.40
2018-09-15T06:19:10.210Z,5.00
2018-09-15T06:21:39.431Z,7.37
2018-09-15T06:24:09.519Z,4.83
2018-09-15T06:26:39.273Z,4.73
2018-09-15T06:29:08.738Z,4.97
2018-09-15T06:31:38.302Z,7.13
2018-09-15T06:34:08.269Z,4.30
2018-09-15T06:36:37.919Z,6.23
2018-09-15T06:39:09.778Z,4.13
2018-09-15T06:41:39.797Z,5.60
2018-09-15T06:44:09.455Z,6.13
2018-09-15T06:46:38.970Z,6.47
2018-09-15T06:49:08.491Z,5.60
2018-09-15T06:51:37.734Z,7.00
2018-09-15T06:54:07.837Z,5.90
2018-09-15T06:56:37.380Z,5.57
2018-09-15T06:59:07.278Z,6.10
2018-09-15T07:01:41.081Z,6.77
2018-09-15T07:04:12.485Z,5.10
2018-09-15T07:06:42.431Z,6.47
2018-09-15T07:09:13.295Z,6.07
2018-09-15T07:11:43.210Z,12.43
2018-09-15T07:14:12.727Z,7.03
2018-09-15T07:16:42.295Z,7.57
2018-09-15T07:19:12.107Z,5.40
2018-09-15T07:21:41.963Z,6.40
2018-09-15T07:24:12.825Z,5.23
2018-09-15T07:26:42.283Z,5.03
2018-09-15T07:29:12.840Z,6.33
2018-09-15T07:31:42.569Z,5.23
2018-09-15T07:34:12.263Z,6.20
2018-09-15T07:36:41.954Z,6.70
2018-09-15T07:39:12.302Z,5.00
2018-09-15T07:41:42.194Z,6.20
2018-09-15T07:44:11.721Z,6.57
2018-09-15T07:46:41.176Z,6.83
2018-09-15T07:49:10.392Z,6.47
2018-09-15T07:51:40.268Z,5.67
2018-09-15T07:54:10.171Z,6.10
2018-09-15T07:56:40.034Z,4.93
2018-09-15T07:59:10.813Z,5.57
2018-09-15T08:01:40.055Z,6.10
2018-09-15T08:04:09.833Z,5.73
2018-09-15T08:06:39.863Z,9.43
2018-09-15T08:09:10.142Z,7.50
2018-09-15T08:11:40.113Z,4.33
2018-09-15T08:14:10.622Z,5.60
2018-09-15T08:16:40.475Z,10.13
2018-09-15T08:19:11.813Z,6.43
2018-09-15T08:21:41.818Z,5.20
2018-09-15T08:24:11.612Z,5.87
2018-09-15T08:26:41.040Z,5.67
2018-09-15T08:29:10.982Z,7.60
2018-09-15T08:31:40.242Z,6.87
2018-09-15T08:34:10.197Z,8.93
2018-09-15T08:36:40.415Z,5.23
2018-09-15T08:39:11.318Z,6.73
2018-09-15T08:41:41.407Z,4.10
2018-09-15T08:44:10.863Z,4.93
2018-09-15T08:46:40.386Z,6.30
2018-09-15T08:49:11.886Z,5.87
2018-09-15T08:51:41.472Z,6.00
2018-09-15T08:54:10.930Z,6.33
2018-09-15T08:56:40.458Z,7.13
2018-09-15T08:59:10.401Z,4.27
2018-09-15T09:01:39.686Z,6.10
2018-09-15T09:04:09.154Z,7.30
2018-09-15T09:06:38.725Z,6.47
2018-09-15T09:09:10.555Z,7.27
2018-09-15T09:11:40.383Z,5.57
2018-09-15T09:14:10.126Z,4.83
2018-09-15T09:16:40.506Z,5.87
2018-09-15T09:19:10.102Z,6.13
2018-09-15T09:21:39.352Z,7.67
2018-09-15T09:24:09.106Z,8.53
2018-09-15T09:26:38.614Z,9.17
2018-09-15T09:29:08.894Z,8.00
2018-09-15T09:31:38.431Z,9.17
2018-09-15T09:34:07.938Z,6.13
2018-09-15T09:36:37.402Z,3.87
2018-09-15T09:39:10.283Z,6.07
2018-09-15T09:41:39.736Z,6.83
2018-09-15T09:44:09.868Z,6.53
2018-09-15T09:46:39.955Z,8.73
2018-09-15T09:49:09.571Z,6.63
2018-09-15T09:51:39.131Z,6.73
2018-09-15T09:54:08.689Z,5.23
2018-09-15T09:56:38.358Z,7.43
2018-09-15T09:59:08.218Z,6.90
2018-09-15T10:01:43.329Z,4.67
2018-09-15T10:04:13.654Z,6.37
2018-09-15T10:06:43.192Z,5.37
2018-09-15T10:09:12.779Z,5.83
2018-09-15T10:11:42.616Z,4.77
2018-09-15T10:14:12.150Z,9.40
2018-09-15T10:16:41.391Z,6.03
2018-09-15T10:19:10.895Z,4.40
2018-09-15T10:21:40.905Z,7.00
2018-09-15T10:24:10.086Z,4.90
2018-09-15T10:26:39.812Z,6.07
2018-09-15T10:29:09.387Z,5.07
2018-09-15T10:31:39.893Z,8.13
2018-09-15T10:34:09.766Z,3.97
2018-09-15T10:36:39.666Z,5.40
2018-09-15T10:39:10.473Z,3.77
2018-09-15T10:41:39.733Z,5.27
2018-09-15T10:44:09.399Z,7.40
2018-09-15T10:46:39.128Z,5.43
2018-09-15T10:49:09.275Z,5.03
2018-09-15T10:51:38.960Z,5.33
2018-09-15T10:54:08.497Z,4.97
2018-09-15T10:56:37.775Z,5.27
2018-09-15T10:59:07.329Z,5.47
2018-09-15T11:01:36.958Z,5.77
2018-09-15T11:04:06.620Z,5.27
2018-09-15T11:06:36.829Z,3.60
2018-09-15T11:09:09.383Z,4.10
2018-09-15T11:11:39.116Z,6.13
2018-09-15T11:14:08.406Z,5.63
2018-09-15T11:16:38.339Z,5.77
2018-09-15T11:19:08.611Z,3.87
2018-09-15T11:21:38.202Z,5.73
2018-09-15T11:24:07.810Z,4.57
2018-09-15T11:26:37.522Z,3.50
2018-09-15T11:29:07.485Z,3.40
2018-09-15T11:31:36.978Z,5.07
2018-09-15T11:34:06.513Z,4.43
2018-09-15T11:36:36.010Z,4.07
2018-09-15T11:39:09.217Z,5.33
2018-09-15T11:41:39.172Z,3.00
2018-09-15T11:44:09.089Z,3.73
2018-09-15T11:46:38.556Z,5.67
2018-09-15T11:49:08.222Z,4.80
2018-09-15T11:51:38.207Z,3.80
2018-09-15T11:54:09.770Z,4.77
2018-09-15T11:56:39.822Z,3.97
2018-09-15T11:59:09.338Z,5.87
2018-09-15T12:01:39.050Z,7.67
2018-09-15T12:04:08.536Z,5.30
2018-09-15T12:06:38.062Z,6.07
2018-09-15T12:09:08.954Z,5.40
2018-09-15T12:11:38.939Z,7.63
2018-09-15T12:14:09.312Z,4.97
2018-09-15T12:16:38.925Z,4.23
2018-09-15T12:19:08.693Z,3.20
2018-09-15T12:21:38.613Z,4.17
2018-09-15T12:24:08.124Z,2.03
2018-09-15T12:26:37.966Z,3.97
2018-09-15T12:29:07.491Z,3.73
2018-09-15T12:31:37.960Z,5.97
2018-09-15T12:34:07.739Z,4.00
2018-09-15T12:36:37.215Z,4.90
2018-09-15T12:39:08.511Z,4.77
2018-09-15T12:41:38.027Z,6.90
2018-09-15T12:44:07.823Z,4.97
2018-09-15T12:46:37.995Z,4.60
2018-09-15T12:49:08.111Z,4.53
2018-09-15T12:51:38.266Z,6.40
2018-09-15T12:54:08.150Z,6.90
2018-09-15T12:56:37.846Z,5.57
2018-09-15T12:59:07.894Z,5.40
2018-09-15T13:01:37.614Z,4.90
2018-09-15T13:04:07.109Z,3.37
2018-09-15T13:06:36.612Z,4.53
2018-09-15T13:09:10.629Z,4.70
2018-09-15T13:11:40.142Z,3.40
2018-09-15T13:14:10.207Z,2.80
2018-09-15T13:16:39.938Z,3.17
2018-09-15T13:19:10.512Z,3.83
2018-09-15T13:21:39.879Z,3.23
2018-09-15T13:24:09.447Z,2.70
2018-09-15T13:26:39.038Z,5.23
2018-09-15T13:29:08.689Z,3.67
2018-09-15T13:31:38.303Z,4.87
2018-09-15T13:34:08.602Z,4.10
2018-09-15T13:36:38.312Z,4.07
2018-09-15T13:39:10.463Z,3.57
2018-09-15T13:41:39.979Z,3.13
2018-09-15T13:44:09.811Z,4.10
2018-09-15T13:46:39.413Z,4.67
2018-09-15T13:49:09.423Z,6.00
2018-09-15T13:51:39.170Z,4.43
2018-09-15T13:54:09.050Z,4.53
2018-09-15T13:56:38.810Z,4.10
2018-09-15T13:59:08.885Z,4.23
2018-09-15T14:01:38.398Z,3.97
2018-09-15T14:04:08.318Z,4.47
2018-09-15T14:06:37.988Z,5.77
2018-09-15T14:09:10.493Z,3.53
2018-09-15T14:11:40.351Z,3.20
2018-09-15T14:14:10.088Z,3.60
2018-09-15T14:16:39.823Z,4.03
2018-09-15T14:19:09.507Z,4.17
2018-09-15T14:21:39.135Z,5.37
2018-09-15T14:24:08.700Z,6.67
2018-09-15T14:26:38.398Z,4.23
2018-09-15T14:29:08.351Z,3.70
2018-09-15T14:31:37.975Z,3.43
2018-09-15T14:34:07.250Z,3.83
2018-09-15T14:36:36.818Z,3.43
2018-09-15T14:39:09.215Z,4.37
2018-09-15T14:41:39.267Z,6.80
2018-09-15T14:44:08.847Z,3.33
2018-09-15T14:46:38.328Z,4.83
2018-09-15T14:49:07.838Z,8.53
2018-09-15T14:51:37.495Z,4.67
2018-09-15T14:54:07.014Z,3.63
2018-09-15T14:56:36.562Z,3.80
2018-09-15T14:59:07.127Z,4.43
2018-09-15T15:01:36.763Z,4.87
2018-09-15T15:04:07.150Z,4.57
2018-09-15T15:06:36.821Z,2.33
2018-09-15T15:09:08.118Z,4.33
2018-09-15T15:11:37.923Z,3.37
2018-09-15T15:14:08.290Z,4.87
2018-09-15T15:16:38.104Z,4.97
2018-09-15T15:19:08.283Z,4.00
2018-09-15T15:21:37.591Z,4.37
2018-09-15T15:24:07.447Z,3.43
2018-09-15T15:26:38.104Z,5.10
2018-09-15T15:29:08.215Z,5.23
2018-09-15T15:31:37.812Z,6.37
2018-09-15T15:34:07.296Z,4.90
2018-09-15T15:36:37.592Z,4.97
2018-09-15T15:39:08.782Z,4.23
2018-09-15T15:41:38.303Z,5.57
2018-09-15T15:44:07.955Z,5.90
2018-09-15T15:46:37.698Z,7.00
2018-09-15T15:49:07.607Z,6.00
2018-09-15T15:51:37.487Z,4.43
2018-09-15T15:54:06.795Z,3.87
2018-09-15T15:56:36.703Z,6.07
2018-09-15T15:59:06.257Z,3.87
2018-09-15T16:01:36.355Z,5.07
2018-09-15T16:04:06.554Z,4.37
2018-09-15T16:06:36.367Z,5.67
2018-09-15T16:09:08.229Z,10.03
2018-09-15T16:11:38.599Z,8.27
2018-09-15T16:14:08.642Z,4.87
2018-09-15T16:16:38.076Z,8.83
2018-09-15T16:19:07.620Z,4.30
2018-09-15T16:21:37.018Z,4.60
2018-09-15T16:24:07.906Z,3.90
2018-09-15T16:26:38.282Z,3.57
2018-09-15T16:29:08.139Z,3.77
2018-09-15T16:31:37.647Z,3.43
2018-09-15T16:34:07.690Z,4.20
2018-09-15T16:36:37.947Z,5.77
2018-09-15T16:39:10.854Z,3.73
2018-09-15T16:41:41.118Z,3.33
2018-09-15T16:44:10.680Z,3.97
2018-09-15T16:46:40.736Z,4.87
2018-09-15T16:49:10.885Z,12.73
2018-09-15T16:51:40.343Z,5.27
2018-09-15T16:54:10.012Z,4.13
2018-09-15T16:56:39.719Z,4.20
2018-09-15T16:59:08.954Z,4.63
2018-09-15T17:01:38.840Z,3.63
2018-09-15T17:04:08.574Z,3.83
2018-09-15T17:06:38.243Z,5.07
2018-09-15T17:09:10.319Z,3.93
2018-09-15T17:11:39.903Z,3.83
2018-09-15T17:14:09.438Z,3.60
2018-09-15T17:16:40.113Z,5.40
2018-09-15T17:19:09.643Z,3.93
2018-09-15T17:21:39.151Z,3.90
2018-09-15T17:24:09.368Z,5.80
2018-09-15T17:26:39.854Z,3.10
2018-09-15T17:29:09.478Z,3.93
2018-09-15T17:31:39.274Z,3.80
2018-09-15T17:34:08.726Z,5.10
2018-09-15T17:36:40.010Z,7.47
2018-09-15T17:39:11.376Z,7.20
2018-09-15T17:41:41.127Z,9.03
2018-09-15T17:44:11.026Z,5.10
2018-09-15T17:46:41.146Z,8.07
2018-09-15T17:49:10.645Z,5.17
2018-09-15T17:51:40.568Z,9.40
2018-09-15T17:54:10.063Z,8.13
2018-09-15T17:56:40.017Z,9.30
2018-09-15T17:59:09.666Z,5.00
2018-09-15T18:01:39.635Z,6.73
2018-09-15T18:04:08.879Z,6.27
2018-09-15T18:06:38.316Z,5.20
2018-09-15T18:09:08.451Z,7.43
2018-09-15T18:11:37.702Z,6.03
2018-09-15T18:14:07.199Z,11.83
2018-09-15T18:16:36.742Z,27.00
2018-09-15T18:19:06.143Z,22.00
2018-09-15T18:21:35.829Z,35.83
2018-09-15T18:24:05.578Z,43.47
2018-09-15T18:26:34.882Z,18.43
2018-09-15T18:29:04.758Z,11.47
2018-09-15T18:31:35.123Z,19.40
2018-09-15T18:34:04.612Z,19.47
2018-09-15T18:36:34.215Z,18.03
2018-09-15T18:39:04.236Z,17.90
2018-09-15T18:41:33.809Z,18.60
2018-09-15T18:44:03.298Z,8.60
2018-09-15T18:46:32.925Z,8.30
2018-09-15T18:49:02.795Z,7.30
2018-09-15T18:51:32.013Z,9.97
2018-09-15T18:54:01.629Z,10.70
2018-09-15T18:56:31.227Z,15.43
2018-09-15T18:59:00.745Z,8.07
2018-09-15T19:01:30.694Z,5.37
2018-09-15T19:03:59.943Z,9.83
2018-09-15T19:06:30.422Z,7.63
2018-09-15T19:09:00.175Z,14.17
2018-09-15T19:11:30.017Z,43.33
2018-09-15T19:14:00.316Z,12.30
2018-09-15T19:16:29.749Z,15.23
2018-09-15T19:18:59.195Z,13.77
2018-09-15T19:21:28.923Z,14.07
2018-09-15T19:23:58.783Z,17.33
2018-09-15T19:26:28.608Z,15.63
2018-09-15T19:28:58.332Z,8.20
2018-09-15T19:31:27.771Z,10.67
2018-09-15T19:33:58.247Z,10.20
2018-09-15T19:36:27.823Z,11.37
2018-09-15T19:38:57.321Z,9.70
2018-09-15T19:41:27.098Z,15.60
2018-09-15T19:43:56.715Z,16.43
2018-09-15T19:46:26.415Z,20.33
2018-09-15T19:48:55.943Z,14.33
2018-09-15T19:51:25.680Z,13.13
2018-09-15T19:53:55.554Z,9.67
2018-09-15T19:56:25.034Z,12.43
2018-09-15T19:58:54.536Z,11.73
2018-09-15T20:01:24.198Z,9.80
2018-09-15T20:03:53.787Z,3.57
2018-09-15T20:06:23.078Z,10.53
2018-09-15T20:08:52.708Z,6.53
2018-09-15T20:11:23.533Z,7.87
2018-09-15T20:13:53.247Z,6.37
2018-09-15T20:16:21.481Z,6.67
2018-09-15T20:18:50.467Z,8.70
2018-09-15T20:21:18.583Z,6.03
2018-09-15T20:23:48.402Z,6.43
2018-09-15T20:26:17.903Z,7.43
2018-09-15T20:28:47.396Z,7.67
2018-09-15T20:31:17.553Z,9.43
2018-09-15T20:33:47.374Z,5.57
2018-09-15T20:36:16.950Z,8.50
2018-09-15T20:38:46.423Z,6.60
2018-09-15T20:41:16.112Z,8.47
2018-09-15T20:43:46.470Z,6.20
2018-09-15T20:46:16.360Z,12.37
2018-09-15T20:48:46.687Z,14.47
2018-09-15T20:51:16.154Z,13.60
2018-09-15T20:53:46.331Z,24.13
2018-09-15T20:56:15.797Z,17.63
2018-09-15T20:58:45.763Z,10.37
2018-09-15T21:01:15.286Z,9.17
2018-09-15T21:03:45.164Z,10.67
2018-09-15T21:06:15.213Z,8.27
2018-09-15T21:08:44.995Z,8.23
2018-09-15T21:11:14.719Z,8.17
2018-09-15T21:13:44.227Z,7.80
2018-09-15T21:16:13.730Z,6.67
2018-09-15T21:18:43.494Z,7.57
2018-09-15T21:21:12.782Z,7.67
2018-09-15T21:23:42.503Z,5.30
2018-09-15T21:26:11.961Z,4.10
2018-09-15T21:28:41.436Z,6.37
2018-09-15T21:31:10.910Z,5.40
2018-09-15T21:33:40.927Z,6.03
2018-09-15T21:36:10.774Z,5.27
2018-09-15T21:38:40.279Z,5.60
2018-09-15T21:41:09.637Z,4.60
2018-09-15T21:43:39.080Z,3.97
2018-09-15T21:46:08.603Z,5.10
2018-09-15T21:48:38.104Z,5.63
2018-09-15T21:51:07.515Z,4.63
2018-09-15T21:53:37.293Z,5.33
2018-09-15T21:56:07.226Z,6.00
2018-09-15T21:58:36.905Z,5.80
2018-09-15T22:01:07.087Z,5.90
2018-09-15T22:03:42.214Z,5.53
2018-09-15T22:06:12.431Z,4.93
2018-09-15T22:08:41.701Z,6.00
2018-09-15T22:11:11.225Z,5.40
2018-09-15T22:13:40.739Z,6.73
2018-09-15T22:16:10.242Z,5.33
2018-09-15T22:18:39.910Z,6.60
2018-09-15T22:21:09.721Z,7.20
2018-09-15T22:23:39.123Z,6.27
2018-09-15T22:26:08.719Z,9.80
2018-09-15T22:28:38.591Z,5.40
2018-09-15T22:31:07.866Z,8.10
2018-09-15T22:33:37.354Z,5.87
2018-09-15T22:36:07.028Z,5.37
2018-09-15T22:38:36.567Z,6.87
2018-09-15T22:41:06.521Z,5.93
2018-09-15T22:43:36.522Z,6.50
2018-09-15T22:46:06.784Z,6.87
2018-09-15T22:48:36.697Z,4.47
2018-09-15T22:51:07.447Z,5.37
2018-09-15T22:53:36.874Z,6.13
2018-09-15T22:56:06.804Z,5.60
2018-09-15T22:58:36.521Z,5.50
2018-09-15T23:01:06.607Z,6.60
2018-09-15T23:03:36.107Z,4.27
2018-09-15T23:06:06.126Z,4.90
2018-09-15T23:08:36.409Z,4.00
2018-09-15T23:11:06.772Z,4.87
2018-09-15T23:13:36.747Z,6.73
2018-09-15T23:16:06.546Z,4.87
2018-09-15T23:18:36.247Z,4.83
2018-09-15T23:21:06.286Z,5.63
2018-09-15T23:23:35.701Z,5.33
2018-09-15T23:26:05.318Z,4.27
2018-09-15T23:28:35.291Z,4.63
2018-09-15T23:31:05.399Z,7.40
2018-09-15T23:33:34.926Z,5.77
2018-09-15T23:36:04.430Z,5.97
2018-09-15T23:38:33.911Z,5.50
2018-09-15T23:41:03.620Z,6.60
2018-09-15T23:43:33.191Z,5.87
2018-09-15T23:46:03.029Z,5.53
2018-09-15T23:48:32.570Z,3.77
2018-09-15T23:51:02.050Z,4.63
2018-09-15T23:53:31.596Z,5.53
2018-09-15T23:56:01.017Z,6.00
2018-09-15T23:58:30.578Z,7.83
